Time,TemperatureF,DewpointF,PressureIn,WindDirection,WindDirectionDegrees,WindSpeedMPH,WindSpeedGustMPH,Humidity,HourlyPrecipIn,Conditions,Clouds,dailyrainin,SoftwareType,DateUTC
2013-04-07 00:00:00,47.9,46.0,30.09,WSW,242,0.0,1.0,93,0.00,,,0.00,,2013-04-07 07:00:00,
2013-04-07 00:10:00,47.8,46.0,30.09,WSW,242,1.0,2.0,94,0.00,,,0.00,,2013-04-07 07:10:00,
2013-04-07 00:20:00,47.4,46.0,30.09,WSW,242,1.0,2.0,94,0.00,,,0.00,,2013-04-07 07:20:00,
2013-04-07 00:30:00,47.3,46.0,30.09,WSW,242,0.0,1.0,94,0.00,,,0.00,,2013-04-07 07:30:00,
2013-04-07 00:40:00,47.2,46.0,30.09,WSW,242,0.0,2.0,94,0.00,,,0.00,,2013-04-07 07:40:00,
2013-04-07 00:50:00,47.2,46.0,30.09,WSW,242,0.0,2.0,94,0.00,,,0.00,,2013-04-07 07:50:00,
2013-04-07 01:00:00,46.9,45.0,30.09,WSW,242,1.0,1.0,94,0.00,,,0.00,,2013-04-07 08:00:00,
2013-04-07 01:10:00,46.6,45.0,30.09,WSW,242,0.0,2.0,94,0.00,,,0.00,,2013-04-07 08:10:00,
2013-04-07 01:20:00,46.8,45.0,30.08,WSW,242,0.0,2.0,94,0.00,,,0.00,,2013-04-07 08:20:00,
2013-04-07 01:30:00,46.8,45.0,30.09,WSW,242,1.0,2.0,95,0.00,,,0.00,,2013-04-07 08:30:00,
2013-04-07 01:40:00,46.6,45.0,30.08,WSW,242,1.0,1.0,94,0.00,,,0.00,,2013-04-07 08:40:00,
2013-04-07 01:50:00,46.3,45.0,30.08,WSW,242,2.0,2.0,94,0.00,,,0.00,,2013-04-07 08:50:00,
2013-04-07 02:00:00,45.9,44.0,30.08,WSW,242,0.0,2.0,94,0.00,,,0.00,,2013-04-07 09:00:00,
2013-04-07 02:10:00,45.7,44.0,30.08,WSW,242,0.0,1.0,94,0.00,,,0.00,,2013-04-07 09:10:00,
2013-04-07 02:21:00,45.6,44.0,30.07,SW,223,0.0,2.0,95,0.00,,,0.00,,2013-04-07 09:21:00,
2013-04-07 02:30:00,45.6,44.0,30.07,SW,223,1.0,2.0,95,0.00,,,0.00,,2013-04-07 09:30:00,
2013-04-07 02:40:00,46.0,45.0,30.07,SW,223,0.0,2.0,95,0.00,,,0.00,,2013-04-07 09:40:00,
2013-04-07 02:50:00,45.7,44.0,30.06,SW,223,0.0,2.0,95,0.00,,,0.00,,2013-04-07 09:50:00,
2013-04-07 03:00:00,45.7,44.0,30.07,SW,223,0.0,1.0,95,0.00,,,0.00,,2013-04-07 10:00:00,
2013-04-07 03:10:00,45.4,44.0,30.06,SW,223,0.0,1.0,95,0.00,,,0.00,,2013-04-07 10:10:00,
2013-04-07 03:20:00,45.2,44.0,30.06,SW,223,0.0,0.0,95,0.00,,,0.00,,2013-04-07 10:20:00,
2013-04-07 03:30:00,44.8,43.0,30.06,SW,223,0.0,0.0,94,0.00,,,0.00,,2013-04-07 10:30:00,
2013-04-07 03:40:00,44.7,43.0,30.06,SW,223,0.0,1.0,95,0.00,,,0.00,,2013-04-07 10:40:00,
2013-04-07 03:50:00,44.5,43.0,30.05,SW,223,0.0,1.0,95,0.00,,,0.00,,2013-04-07 10:50:00,
2013-04-07 04:00:00,44.5,43.0,30.05,SW,223,1.0,2.0,95,0.00,,,0.00,,2013-04-07 11:00:00,
2013-04-07 04:10:00,45.4,44.0,30.05,SSE,150,1.0,2.0,95,0.00,,,0.00,,2013-04-07 11:10:00,
2013-04-07 04:20:00,44.9,44.0,30.05,SSE,150,0.0,1.0,95,0.00,,,0.00,,2013-04-07 11:20:00,
2013-04-07 04:30:00,44.5,43.0,30.04,SW,225,2.0,2.0,95,0.00,,,0.00,,2013-04-07 11:30:00,
2013-04-07 04:40:00,44.4,43.0,30.04,SW,225,0.0,2.0,95,0.00,,,0.00,,2013-04-07 11:40:00,
2013-04-07 04:50:00,44.7,43.0,30.04,SW,225,0.0,2.0,95,0.00,,,0.00,,2013-04-07 11:50:00,
2013-04-07 05:00:00,44.5,43.0,30.04,SW,225,0.0,1.0,95,0.00,,,0.00,,2013-04-07 12:00:00,
2013-04-07 05:10:00,44.3,43.0,30.03,SW,225,1.0,1.0,95,0.00,,,0.00,,2013-04-07 12:10:00,
2013-04-07 05:20:00,44.6,43.0,30.03,SW,225,2.0,3.0,95,0.00,,,0.00,,2013-04-07 12:20:00,
2013-04-07 05:30:00,44.9,44.0,30.03,SSE,157,2.0,2.0,95,0.00,,,0.00,,2013-04-07 12:30:00,
2013-04-07 05:40:00,45.0,44.0,30.03,SSE,158,0.0,2.0,95,0.00,,,0.00,,2013-04-07 12:40:00,
2013-04-07 05:50:00,45.4,44.0,30.03,SSE,158,0.0,2.0,95,0.00,,,0.00,,2013-04-07 12:50:00,
2013-04-07 06:00:00,45.4,44.0,30.03,SSE,164,0.0,3.0,95,0.00,,,0.00,,2013-04-07 13:00:00,
2013-04-07 06:10:00,45.4,44.0,30.03,SSE,164,1.0,3.0,95,0.00,,,0.00,,2013-04-07 13:10:00,
2013-04-07 06:20:00,45.6,44.0,30.03,SSE,164,0.0,3.0,95,0.00,,,0.00,,2013-04-07 13:20:00,
2013-04-07 06:30:00,45.7,44.0,30.03,SSE,164,0.0,2.0,95,0.00,,,0.00,,2013-04-07 13:30:00,
2013-04-07 06:40:00,46.0,45.0,30.04,SSE,164,1.0,2.0,95,0.00,,,0.00,,2013-04-07 13:40:00,
2013-04-07 06:50:00,45.8,44.0,30.04,SSE,164,0.0,3.0,95,0.00,,,0.00,,2013-04-07 13:50:00,
2013-04-07 07:00:00,45.7,44.0,30.04,SSE,164,0.0,1.0,95,0.00,,,0.00,,2013-04-07 14:00:00,
2013-04-07 07:10:00,46.2,45.0,30.05,SSE,164,1.0,2.0,95,0.00,,,0.01,,2013-04-07 14:10:00,
2013-04-07 07:20:00,46.9,46.0,30.05,SSE,164,2.0,3.0,96,0.00,,,0.01,,2013-04-07 14:20:00,
2013-04-07 07:30:00,47.7,47.0,30.06,SE,134,0.0,3.0,96,0.00,,,0.01,,2013-04-07 14:30:00,
2013-04-07 07:40:00,48.0,47.0,30.06,NNE,22,1.0,1.0,96,0.00,,,0.01,,2013-04-07 14:40:00,
2013-04-07 07:50:00,49.0,48.0,30.06,NNW,336,0.0,2.0,96,0.00,,,0.01,,2013-04-07 14:50:00,
2013-04-07 08:00:00,49.6,49.0,30.06,NNW,336,0.0,0.0,96,0.00,,,0.01,,2013-04-07 15:00:00,
2013-04-07 08:10:00,50.6,50.0,30.06,NW,325,1.0,1.0,96,0.00,,,0.01,,2013-04-07 15:10:00,
2013-04-07 08:20:00,52.2,51.0,30.06,NW,325,0.0,1.0,96,0.00,,,0.01,,2013-04-07 15:20:00,
2013-04-07 08:30:00,54.4,53.0,30.06,NE,40,2.0,3.0,96,0.00,,,0.01,,2013-04-07 15:30:00,
2013-04-07 08:40:00,55.6,54.0,30.06,North,9,0.0,3.0,96,0.00,,,0.01,,2013-04-07 15:40:00,
2013-04-07 08:50:00,57.3,56.0,30.06,North,9,0.0,2.0,96,0.00,,,0.01,,2013-04-07 15:50:00,
2013-04-07 09:00:00,56.9,55.0,30.06,SSW,208,0.0,3.0,93,0.00,,,0.01,,2013-04-07 16:00:00,
2013-04-07 09:10:00,58.8,55.0,30.05,SSW,197,0.0,2.0,88,0.00,,,0.01,,2013-04-07 16:10:00,
2013-04-07 09:20:00,60.2,54.0,30.06,SSE,163,0.0,3.0,80,0.00,,,0.01,,2013-04-07 16:20:00,
2013-04-07 09:30:00,60.2,51.0,30.06,WSW,254,8.0,10.0,72,0.00,,,0.01,,2013-04-07 16:30:00,
2013-04-07 09:40:00,61.0,52.0,30.07,SW,225,9.0,9.0,71,0.00,,,0.01,,2013-04-07 16:40:00,
2013-04-07 09:50:00,59.1,52.0,30.07,SW,234,12.0,13.0,77,0.00,,,0.01,,2013-04-07 16:50:00,
2013-04-07 10:00:00,59.8,53.0,30.07,WSW,251,12.0,12.0,77,0.00,,,0.01,,2013-04-07 17:00:00,
2013-04-07 10:10:00,60.0,52.0,30.07,SSW,207,5.0,12.0,75,0.00,,,0.01,,2013-04-07 17:10:00,
2013-04-07 10:20:00,63.2,55.0,30.07,NNE,26,2.0,4.0,75,0.00,,,0.01,,2013-04-07 17:20:00,
2013-04-07 10:30:00,66.1,54.0,30.06,WSW,242,9.0,9.0,65,0.00,,,0.01,,2013-04-07 17:30:00,
2013-04-07 10:40:00,62.0,52.0,30.06,SW,234,6.0,12.0,71,0.00,,,0.01,,2013-04-07 17:40:00,
2013-04-07 10:50:00,61.3,52.0,30.06,West,266,6.0,13.0,72,0.00,,,0.01,,2013-04-07 17:50:00,
2013-04-07 11:00:00,61.6,53.0,30.06,WNW,287,6.0,14.0,73,0.00,,,0.01,,2013-04-07 18:00:00,
2013-04-07 11:10:00,62.0,54.0,30.06,WNW,286,5.0,12.0,74,0.00,,,0.01,,2013-04-07 18:10:00,
2013-04-07 11:20:00,63.3,55.0,30.06,WNW,282,2.0,10.0,73,0.00,,,0.01,,2013-04-07 18:20:00,
2013-04-07 11:30:00,65.3,54.0,30.05,West,273,0.0,8.0,68,0.00,,,0.01,,2013-04-07 18:30:00,
2013-04-07 11:40:00,67.3,56.0,30.05,West,267,1.0,6.0,68,0.00,,,0.01,,2013-04-07 18:40:00,
2013-04-07 11:50:00,67.6,57.0,30.05,NW,317,0.0,6.0,69,0.00,,,0.01,,2013-04-07 18:50:00,
2013-04-07 12:00:00,67.7,56.0,30.06,West,280,12.0,12.0,65,0.00,,,0.01,,2013-04-07 19:00:00,
2013-04-07 12:10:00,65.8,55.0,30.05,WNW,296,7.0,16.0,68,0.00,,,0.01,,2013-04-07 19:10:00,
2013-04-07 12:20:00,64.1,54.0,30.04,SW,229,11.0,24.0,70,0.00,,,0.01,,2013-04-07 19:20:00,
2013-04-07 12:30:00,64.0,54.0,30.03,WNW,289,8.0,15.0,70,0.00,,,0.01,,2013-04-07 19:30:00,
2013-04-07 12:40:00,65.7,56.0,30.03,WNW,299,5.0,14.0,70,0.00,,,0.01,,2013-04-07 19:40:00,
2013-04-07 12:50:00,65.3,55.0,30.03,NW,311,1.0,20.0,70,0.00,,,0.01,,2013-04-07 19:50:00,
2013-04-07 13:00:00,63.9,54.0,30.01,WNW,294,4.0,16.0,70,0.00,,,0.01,,2013-04-07 20:00:00,
2013-04-07 13:10:00,65.4,55.0,30.02,WNW,284,9.0,17.0,69,0.00,,,0.01,,2013-04-07 20:10:00,
2013-04-07 13:21:00,64.6,54.0,30.01,WNW,289,7.0,19.0,69,0.00,,,0.01,,2013-04-07 20:21:00,
2013-04-07 13:30:00,63.7,54.0,30.00,West,280,16.0,23.0,71,0.00,,,0.01,,2013-04-07 20:30:00,
2013-04-07 13:40:00,62.3,54.0,30.00,WNW,290,9.0,18.0,75,0.00,,,0.01,,2013-04-07 20:40:00,
2013-04-07 13:50:00,62.9,54.0,30.00,WNW,292,8.0,20.0,72,0.00,,,0.01,,2013-04-07 20:50:00,
2013-04-07 14:00:00,63.6,54.0,30.00,NW,305,6.0,20.0,72,0.00,,,0.01,,2013-04-07 21:00:00,
2013-04-07 14:10:00,63.9,55.0,30.00,SW,234,6.0,18.0,73,0.00,,,0.01,,2013-04-07 21:10:00,
2013-04-07 14:20:00,63.7,54.0,29.99,WNW,291,5.0,17.0,71,0.00,,,0.01,,2013-04-07 21:20:00,
2013-04-07 14:30:00,63.5,55.0,29.99,West,266,17.0,20.0,73,0.00,,,0.01,,2013-04-07 21:30:00,
2013-04-07 14:40:00,65.1,56.0,29.98,West,277,10.0,15.0,72,0.00,,,0.01,,2013-04-07 21:40:00,
2013-04-07 14:51:00,65.4,55.0,29.97,West,269,9.0,19.0,69,0.00,,,0.01,,2013-04-07 21:51:00,
2013-04-07 15:00:00,64.3,55.0,29.98,West,277,12.0,19.0,72,0.00,,,0.01,,2013-04-07 22:00:00,
2013-04-07 15:10:00,62.9,54.0,29.98,WNW,291,12.0,18.0,72,0.00,,,0.01,,2013-04-07 22:10:00,
2013-04-07 15:20:00,63.0,54.0,29.96,WNW,292,6.0,17.0,73,0.00,,,0.01,,2013-04-07 22:20:00,
2013-04-07 15:30:00,63.5,54.0,29.95,WSW,255,15.0,20.0,72,0.00,,,0.01,,2013-04-07 22:30:00,
2013-04-07 15:40:00,62.5,54.0,29.95,West,279,11.0,21.0,75,0.00,,,0.01,,2013-04-07 22:40:00,
2013-04-07 15:50:00,62.8,54.0,29.95,WNW,289,13.0,19.0,74,0.00,,,0.01,,2013-04-07 22:50:00,
2013-04-07 16:00:00,61.1,54.0,29.95,SSW,212,9.0,22.0,77,0.00,,,0.01,,2013-04-07 23:00:00,
2013-04-07 16:10:00,58.4,53.0,29.94,WSW,256,10.0,22.0,82,0.00,,,0.01,,2013-04-07 23:10:00,
2013-04-07 16:20:00,59.3,54.0,29.94,West,275,9.0,17.0,83,0.00,,,0.01,,2013-04-07 23:20:00,
2013-04-07 16:30:00,61.4,54.0,29.93,SW,227,10.0,17.0,78,0.00,,,0.01,,2013-04-07 23:30:00,
2013-04-07 16:40:00,60.7,54.0,29.93,WSW,246,15.0,19.0,78,0.00,,,0.01,,2013-04-07 23:40:00,
2013-04-07 16:50:00,61.3,54.0,29.94,WNW,298,9.0,17.0,78,0.00,,,0.01,,2013-04-07 23:50:00,
2013-04-07 17:00:00,60.6,53.0,29.94,WNW,290,11.0,23.0,76,0.00,,,0.01,,2013-04-08 00:00:00,
2013-04-07 17:10:00,60.4,53.0,29.93,WNW,289,14.0,24.0,77,0.00,,,0.01,,2013-04-08 00:10:00,
2013-04-07 17:20:00,60.4,53.0,29.92,West,262,9.0,20.0,76,0.00,,,0.01,,2013-04-08 00:20:00,
2013-04-07 17:30:00,60.0,53.0,29.92,West,279,12.0,20.0,77,0.00,,,0.01,,2013-04-08 00:30:00,
2013-04-07 17:40:00,59.6,52.0,29.91,West,267,12.0,19.0,77,0.00,,,0.01,,2013-04-08 00:40:00,
2013-04-07 17:50:00,59.2,52.0,29.92,West,273,10.0,23.0,78,0.00,,,0.01,,2013-04-08 00:50:00,
2013-04-07 18:00:00,58.5,52.0,29.91,NW,312,9.0,22.0,79,0.00,,,0.01,,2013-04-08 01:00:00,
2013-04-07 18:10:00,57.5,52.0,29.91,West,276,9.0,23.0,82,0.00,,,0.01,,2013-04-08 01:10:00,
2013-04-07 18:20:00,57.1,52.0,29.90,West,278,17.0,23.0,83,0.00,,,0.01,,2013-04-08 01:20:00,
2013-04-07 18:30:00,55.8,51.0,29.91,SW,220,13.0,22.0,85,0.00,,,0.01,,2013-04-08 01:30:00,
2013-04-07 18:40:00,55.2,51.0,29.91,WSW,244,18.0,23.0,87,0.00,,,0.01,,2013-04-08 01:40:00,
2013-04-07 18:50:00,54.9,51.0,29.90,West,274,12.0,22.0,87,0.00,,,0.01,,2013-04-08 01:50:00,
2013-04-07 19:00:00,54.6,51.0,29.90,WNW,296,17.0,21.0,87,0.00,,,0.01,,2013-04-08 02:00:00,
2013-04-07 19:10:00,54.4,51.0,29.90,SW,232,13.0,23.0,88,0.00,,,0.01,,2013-04-08 02:10:00,
2013-04-07 19:20:00,54.2,51.0,29.90,WSW,247,22.0,25.0,88,0.00,,,0.01,,2013-04-08 02:20:00,
2013-04-07 19:30:00,53.9,50.0,29.90,SW,229,22.0,22.0,88,0.00,,,0.01,,2013-04-08 02:30:00,
2013-04-07 19:41:00,53.6,50.0,29.90,WNW,296,13.0,20.0,89,0.00,,,0.01,,2013-04-08 02:41:00,
2013-04-07 19:50:00,53.6,50.0,29.89,WNW,289,8.0,18.0,89,0.00,,,0.01,,2013-04-08 02:50:00,
2013-04-07 20:00:00,53.6,50.0,29.90,SSW,209,19.0,23.0,88,0.00,,,0.01,,2013-04-08 03:00:00,
2013-04-07 20:10:00,53.7,50.0,29.90,WNW,290,15.0,23.0,88,0.00,,,0.01,,2013-04-08 03:10:00,
2013-04-07 20:20:00,53.5,50.0,29.90,WSW,252,16.0,20.0,88,0.00,,,0.01,,2013-04-08 03:20:00,
2013-04-07 20:30:00,53.4,50.0,29.90,WNW,300,7.0,23.0,88,0.00,,,0.01,,2013-04-08 03:30:00,
2013-04-07 20:40:00,53.3,50.0,29.91,SW,230,13.0,21.0,88,0.00,,,0.01,,2013-04-08 03:40:00,
2013-04-07 20:50:00,53.2,50.0,29.91,SW,230,11.0,20.0,88,0.00,,,0.01,,2013-04-08 03:50:00,
2013-04-07 21:00:00,53.1,50.0,29.91,WNW,286,12.0,21.0,88,0.00,,,0.01,,2013-04-08 04:00:00,
2013-04-07 21:10:00,53.0,50.0,29.91,West,277,13.0,24.0,88,0.00,,,0.01,,2013-04-08 04:10:00,
2013-04-07 21:20:00,52.8,49.0,29.91,WSW,246,9.0,17.0,88,0.00,,,0.01,,2013-04-08 04:20:00,
2013-04-07 21:30:00,52.7,49.0,29.91,West,271,7.0,20.0,88,0.00,,,0.01,,2013-04-08 04:30:00,
2013-04-07 21:40:00,52.6,49.0,29.92,SW,220,14.0,22.0,88,0.00,,,0.01,,2013-04-08 04:40:00,
2013-04-07 21:50:00,52.6,49.0,29.92,WSW,247,14.0,20.0,88,0.00,,,0.01,,2013-04-08 04:50:00,
2013-04-07 22:00:00,52.5,49.0,29.91,WNW,302,13.0,23.0,87,0.00,,,0.01,,2013-04-08 05:00:00,
2013-04-07 22:10:00,52.6,49.0,29.91,WNW,284,16.0,22.0,87,0.00,,,0.01,,2013-04-08 05:10:00,
2013-04-07 22:20:00,52.7,49.0,29.92,WSW,248,16.0,19.0,86,0.00,,,0.01,,2013-04-08 05:20:00,
2013-04-07 22:30:00,52.5,48.0,29.91,West,281,11.0,16.0,86,0.00,,,0.01,,2013-04-08 05:30:00,
2013-04-07 22:40:00,52.3,48.0,29.91,WSW,241,13.0,23.0,86,0.00,,,0.01,,2013-04-08 05:40:00,
2013-04-07 22:50:00,52.1,48.0,29.91,West,267,8.0,14.0,87,0.00,,,0.01,,2013-04-08 05:50:00,
2013-04-07 23:00:00,51.9,48.0,29.90,NW,306,6.0,13.0,87,0.00,,,0.01,,2013-04-08 06:00:00,
2013-04-07 23:10:00,51.8,48.0,29.90,WSW,257,4.0,13.0,87,0.00,,,0.01,,2013-04-08 06:10:00,
2013-04-07 23:20:00,51.9,48.0,29.90,WNW,286,16.0,16.0,87,0.00,,,0.01,,2013-04-08 06:20:00,
2013-04-07 23:30:00,51.6,48.0,29.90,West,266,10.0,19.0,88,0.00,,,0.01,,2013-04-08 06:30:00,
2013-04-07 23:40:00,51.6,48.0,29.90,WSW,242,7.0,16.0,88,0.00,,,0.01,,2013-04-08 06:40:00,
2013-04-07 23:50:00,51.6,48.0,29.90,West,260,7.0,17.0,89,0.00,,,0.01,,2013-04-08 06:50:00,